sensor_id;sensor_type;location;lat;lon;timestamp;pressure;altitude;pressure_sealevel;temperature;humidity
11525;BME280;5819;49.648;8.330;2023-08-06T00:00:17;99518.16;;;16.66;100.00
11525;BME280;5819;49.648;8.330;2023-08-06T00:02:44;99521.63;;;16.66;100.00
11525;BME280;5819;49.648;8.330;2023-08-06T00:05:12;99511.28;;;16.65;100.00
11525;BME280;5819;49.648;8.330;2023-08-06T00:07:45;99507.44;;;16.69;100.00
11525;BME280;5819;49.648;8.330;2023-08-06T00:10:13;99499.69;;;16.67;100.00
11525;BME280;5819;49.648;8.330;2023-08-06T00:12:41;99503.19;;;16.57;100.00
11525;BME280;5819;49.648;8.330;2023-08-06T00:15:10;99484.66;;;16.58;100.00
11525;BME280;5819;49.648;8.330;2023-08-06T00:17:38;99485.97;;;16.53;100.00
11525;BME280;5819;49.648;8.330;2023-08-06T00:20:07;99492.66;;;16.46;100.00
11525;BME280;5819;49.648;8.330;2023-08-06T00:22:37;99486.97;;;16.41;100.00
11525;BME280;5819;49.648;8.330;2023-08-06T00:25:07;99485.28;;;16.39;100.00
11525;BME280;5819;49.648;8.330;2023-08-06T00:27:36;99483.72;;;16.37;100.00
11525;BME280;5819;49.648;8.330;2023-08-06T00:30:05;99479.66;;;16.33;100.00
11525;BME280;5819;49.648;8.330;2023-08-06T00:32:33;99477.19;;;16.31;100.00
11525;BME280;5819;49.648;8.330;2023-08-06T00:35:01;99467.53;;;16.32;100.00
11525;BME280;5819;49.648;8.330;2023-08-06T00:37:29;99462.13;;;16.33;100.00
11525;BME280;5819;49.648;8.330;2023-08-06T00:39:58;99455.81;;;16.36;100.00
11525;BME280;5819;49.648;8.330;2023-08-06T00:42:27;99464.38;;;16.38;100.00
11525;BME280;5819;49.648;8.330;2023-08-06T00:44:56;99459.41;;;16.35;100.00
11525;BME280;5819;49.648;8.330;2023-08-06T00:47:24;99449.16;;;16.32;100.00
11525;BME280;5819;49.648;8.330;2023-08-06T00:49:52;99456.56;;;16.27;100.00
11525;BME280;5819;49.648;8.330;2023-08-06T00:52:20;99458.59;;;16.23;100.00
11525;BME280;5819;49.648;8.330;2023-08-06T00:54:48;99453.44;;;16.22;100.00
11525;BME280;5819;49.648;8.330;2023-08-06T00:57:16;99448.72;;;16.16;100.00
11525;BME280;5819;49.648;8.330;2023-08-06T00:59:47;99450.13;;;16.20;100.00
11525;BME280;5819;49.648;8.330;2023-08-06T01:02:15;99445.00;;;16.18;100.00
11525;BME280;5819;49.648;8.330;2023-08-06T01:04:43;99438.31;;;16.14;100.00
11525;BME280;5819;49.648;8.330;2023-08-06T01:07:18;99430.34;;;16.16;100.00
11525;BME280;5819;49.648;8.330;2023-08-06T01:09:55;99431.19;;;16.16;100.00
11525;BME280;5819;49.648;8.330;2023-08-06T01:12:34;99430.81;;;16.10;100.00
11525;BME280;5819;49.648;8.330;2023-08-06T01:15:11;99429.63;;;16.03;100.00
11525;BME280;5819;49.648;8.330;2023-08-06T01:17:42;99429.31;;;15.96;100.00
11525;BME280;5819;49.648;8.330;2023-08-06T01:20:12;99434.06;;;15.91;100.00
11525;BME280;5819;49.648;8.330;2023-08-06T01:22:41;99434.06;;;15.91;100.00
11525;BME280;5819;49.648;8.330;2023-08-06T01:25:09;99430.88;;;15.87;100.00
11525;BME280;5819;49.648;8.330;2023-08-06T01:27:42;99426.56;;;15.86;100.00
11525;BME280;5819;49.648;8.330;2023-08-06T01:30:13;99426.22;;;15.91;100.00
11525;BME280;5819;49.648;8.330;2023-08-06T01:32:45;99423.81;;;15.99;100.00
11525;BME280;5819;49.648;8.330;2023-08-06T01:35:16;99425.47;;;16.00;100.00
11525;BME280;5819;49.648;8.330;2023-08-06T01:37:47;99420.47;;;16.08;100.00
11525;BME280;5819;49.648;8.330;2023-08-06T01:40:15;99407.78;;;16.13;100.00
11525;BME280;5819;49.648;8.330;2023-08-06T01:42:43;99410.28;;;16.15;100.00
11525;BME280;5819;49.648;8.330;2023-08-06T01:45:11;99407.78;;;16.13;100.00
11525;BME280;5819;49.648;8.330;2023-08-06T01:47:38;99395.28;;;16.17;100.00
11525;BME280;5819;49.648;8.330;2023-08-06T01:50:07;99397.53;;;16.10;100.00
11525;BME280;5819;49.648;8.330;2023-08-06T01:52:35;99399.59;;;16.07;100.00
11525;BME280;5819;49.648;8.330;2023-08-06T01:55:05;99412.00;;;16.05;100.00
11525;BME280;5819;49.648;8.330;2023-08-06T01:57:32;99408.88;;;16.11;100.00
11525;BME280;5819;49.648;8.330;2023-08-06T02:00:00;99407.16;;;16.21;100.00
11525;BME280;5819;49.648;8.330;2023-08-06T02:02:38;99408.59;;;16.25;100.00
11525;BME280;5819;49.648;8.330;2023-08-06T02:05:09;99405.53;;;16.20;100.00
11525;BME280;5819;49.648;8.330;2023-08-06T02:07:39;99406.00;;;16.14;100.00
11525;BME280;5819;49.648;8.330;2023-08-06T02:10:09;99402.53;;;16.13;100.00
11525;BME280;5819;49.648;8.330;2023-08-06T02:12:37;99394.56;;;16.15;100.00
11525;BME280;5819;49.648;8.330;2023-08-06T02:15:06;99388.63;;;16.13;100.00
11525;BME280;5819;49.648;8.330;2023-08-06T02:17:34;99400.19;;;15.99;100.00
11525;BME280;5819;49.648;8.330;2023-08-06T02:20:03;99396.16;;;15.95;100.00
11525;BME280;5819;49.648;8.330;2023-08-06T02:22:31;99392.69;;;15.95;100.00
11525;BME280;5819;49.648;8.330;2023-08-06T02:24:59;99390.31;;;15.91;100.00
11525;BME280;5819;49.648;8.330;2023-08-06T02:27:28;99387.34;;;15.85;100.00
11525;BME280;5819;49.648;8.330;2023-08-06T02:29:56;99383.06;;;15.84;100.00
11525;BME280;5819;49.648;8.330;2023-08-06T02:32:24;99391.03;;;15.82;100.00
11525;BME280;5819;49.648;8.330;2023-08-06T02:34:52;99381.38;;;15.83;100.00
11525;BME280;5819;49.648;8.330;2023-08-06T02:37:20;99385.56;;;15.85;100.00
11525;BME280;5819;49.648;8.330;2023-08-06T02:39:48;99386.03;;;15.90;100.00
11525;BME280;5819;49.648;8.330;2023-08-06T02:42:16;99376.00;;;15.96;100.00
11525;BME280;5819;49.648;8.330;2023-08-06T02:44:46;99375.28;;;15.93;100.00
11525;BME280;5819;49.648;8.330;2023-08-06T02:47:14;99367.31;;;15.95;100.00
11525;BME280;5819;49.648;8.330;2023-08-06T02:49:43;99366.94;;;16.00;100.00
11525;BME280;5819;49.648;8.330;2023-08-06T02:52:11;99372.03;;;16.01;100.00
11525;BME280;5819;49.648;8.330;2023-08-06T02:54:42;99366.94;;;16.00;100.00
11525;BME280;5819;49.648;8.330;2023-08-06T02:57:12;99372.66;;;16.05;100.00
11525;BME280;5819;49.648;8.330;2023-08-06T02:59:40;99368.47;;;16.02;100.00
11525;BME280;5819;49.648;8.330;2023-08-06T03:02:16;99374.44;;;16.04;100.00
11525;BME280;5819;49.648;8.330;2023-08-06T03:04:55;99362.97;;;16.05;100.00
11525;BME280;5819;49.648;8.330;2023-08-06T03:07:27;99356.91;;;16.05;100.00
11525;BME280;5819;49.648;8.330;2023-08-06T03:10:02;99352.63;;;16.04;100.00
11525;BME280;5819;49.648;8.330;2023-08-06T03:12:30;99349.16;;;16.03;100.00
11525;BME280;5819;49.648;8.330;2023-08-06T03:15:00;99342.22;;;16.02;100.00
11525;BME280;5819;49.648;8.330;2023-08-06T03:17:29;99345.44;;;16.06;100.00
11525;BME280;5819;49.648;8.330;2023-08-06T03:19:58;99339.81;;;16.10;100.00
11525;BME280;5819;49.648;8.330;2023-08-06T03:22:27;99350.31;;;16.10;100.00
11525;BME280;5819;49.648;8.330;2023-08-06T03:24:55;99343.28;;;16.11;100.00
11525;BME280;5819;49.648;8.330;2023-08-06T03:27:24;99342.91;;;16.15;100.00
11525;BME280;5819;49.648;8.330;2023-08-06T03:29:53;99338.50;;;16.16;100.00
11525;BME280;5819;49.648;8.330;2023-08-06T03:32:24;99341.81;;;16.18;100.00
11525;BME280;5819;49.648;8.330;2023-08-06T03:34:55;99336.56;;;16.18;100.00
11525;BME280;5819;49.648;8.330;2023-08-06T03:37:26;99347.78;;;16.20;100.00
11525;BME280;5819;49.648;8.330;2023-08-06T03:39:55;99344.34;;;16.19;100.00
11525;BME280;5819;49.648;8.330;2023-08-06T03:42:23;99336.47;;;16.19;100.00
11525;BME280;5819;49.648;8.330;2023-08-06T03:44:51;99344.69;;;16.15;100.00
11525;BME280;5819;49.648;8.330;2023-08-06T03:47:19;99343.50;;;16.19;100.00
11525;BME280;5819;49.648;8.330;2023-08-06T03:49:49;99350.53;;;16.18;100.00
11525;BME280;5819;49.648;8.330;2023-08-06T03:52:23;99346.94;;;16.19;100.00
11525;BME280;5819;49.648;8.330;2023-08-06T03:54:50;99351.88;;;16.13;100.00
11525;BME280;5819;49.648;8.330;2023-08-06T03:57:18;99348.78;;;16.08;100.00
11525;BME280;5819;49.648;8.330;2023-08-06T03:59:46;99340.56;;;16.01;100.00
11525;BME280;5819;49.648;8.330;2023-08-06T04:02:23;99346.78;;;16.00;100.00
11525;BME280;5819;49.648;8.330;2023-08-06T04:04:51;99350.63;;;15.96;100.00
11525;BME280;5819;49.648;8.330;2023-08-06T04:07:20;99345.47;;;15.95;100.00
11525;BME280;5819;49.648;8.330;2023-08-06T04:09:54;99342.59;;;15.98;100.00
11525;BME280;5819;49.648;8.330;2023-08-06T04:12:25;99339.28;;;15.96;100.00
11525;BME280;5819;49.648;8.330;2023-08-06T04:14:53;99339.75;;;16.01;100.00
11525;BME280;5819;49.648;8.330;2023-08-06T04:17:22;99334.50;;;16.01;100.00
11525;BME280;5819;49.648;8.330;2023-08-06T04:19:51;99334.97;;;15.95;100.00
11525;BME280;5819;49.648;8.330;2023-08-06T04:22:20;99338.91;;;16.00;100.00
11525;BME280;5819;49.648;8.330;2023-08-06T04:24:48;99339.59;;;16.02;100.00
11525;BME280;5819;49.648;8.330;2023-08-06T04:27:19;99338.66;;;16.03;100.00
11525;BME280;5819;49.648;8.330;2023-08-06T04:29:49;99340.66;;;16.11;100.00
11525;BME280;5819;49.648;8.330;2023-08-06T04:32:17;99341.03;;;16.06;100.00
11525;BME280;5819;49.648;8.330;2023-08-06T04:34:50;99340.41;;;16.14;100.00
11525;BME280;5819;49.648;8.330;2023-08-06T04:37:18;99338.97;;;16.10;100.00
11525;BME280;5819;49.648;8.330;2023-08-06T04:39:46;99338.97;;;16.10;100.00
11525;BME280;5819;49.648;8.330;2023-08-06T04:42:14;99331.69;;;16.13;100.00
11525;BME280;5819;49.648;8.330;2023-08-06T04:44:43;99333.75;;;16.10;100.00
11525;BME280;5819;49.648;8.330;2023-08-06T04:47:11;99332.47;;;16.04;100.00
11525;BME280;5819;49.648;8.330;2023-08-06T04:49:41;99335.09;;;16.04;100.00
11525;BME280;5819;49.648;8.330;2023-08-06T04:52:09;99332.56;;;16.03;100.00
11525;BME280;5819;49.648;8.330;2023-08-06T04:54:37;99337.81;;;16.03;100.00
11525;BME280;5819;49.648;8.330;2023-08-06T04:57:05;99338.19;;;15.98;100.00
11525;BME280;5819;49.648;8.330;2023-08-06T04:59:32;99335.94;;;15.93;100.00
11525;BME280;5819;49.648;8.330;2023-08-06T05:02:02;99343.69;;;15.95;100.00
11525;BME280;5819;49.648;8.330;2023-08-06T05:04:30;99332.25;;;15.96;100.00
11525;BME280;5819;49.648;8.330;2023-08-06T05:06:59;99339.03;;;15.99;100.00
11525;BME280;5819;49.648;8.330;2023-08-06T05:09:27;99336.66;;;15.96;100.00
11525;BME280;5819;49.648;8.330;2023-08-06T05:11:55;99342.59;;;15.98;100.00
11525;BME280;5819;49.648;8.330;2023-08-06T05:14:22;99339.41;;;15.94;100.00
11525;BME280;5819;49.648;8.330;2023-08-06T05:16:50;99341.91;;;15.96;100.00
11525;BME280;5819;49.648;8.330;2023-08-06T05:19:20;99336.97;;;16.02;100.00
11525;BME280;5819;49.648;8.330;2023-08-06T05:21:48;99336.16;;;16.02;100.00
11525;BME280;5819;49.648;8.330;2023-08-06T05:24:16;99342.84;;;15.95;100.00
11525;BME280;5819;49.648;8.330;2023-08-06T05:26:47;99338.91;;;16.00;100.00
11525;BME280;5819;49.648;8.330;2023-08-06T05:29:16;99339.59;;;16.02;100.00
11525;BME280;5819;49.648;8.330;2023-08-06T05:31:44;99342.50;;;15.99;100.00
11525;BME280;5819;49.648;8.330;2023-08-06T05:34:12;99341.16;;;16.05;100.00
11525;BME280;5819;49.648;8.330;2023-08-06T05:36:41;99342.81;;;16.06;100.00
11525;BME280;5819;49.648;8.330;2023-08-06T05:39:10;99341.03;;;16.06;100.00
11525;BME280;5819;49.648;8.330;2023-08-06T05:41:37;99339.50;;;16.04;100.00
11525;BME280;5819;49.648;8.330;2023-08-06T05:44:05;99350.34;;;15.99;100.00
11525;BME280;5819;49.648;8.330;2023-08-06T05:46:33;99347.22;;;16.05;100.00
11525;BME280;5819;49.648;8.330;2023-08-06T05:49:01;99343.31;;;16.00;100.00
11525;BME280;5819;49.648;8.330;2023-08-06T05:51:28;99346.19;;;15.97;100.00
11525;BME280;5819;49.648;8.330;2023-08-06T05:53:57;99348.44;;;16.01;100.00
11525;BME280;5819;49.648;8.330;2023-08-06T05:56:25;99350.09;;;16.02;100.00
11525;BME280;5819;49.648;8.330;2023-08-06T05:58:53;99354.16;;;16.06;100.00
11525;BME280;5819;49.648;8.330;2023-08-06T06:01:21;99347.22;;;16.16;100.00
11525;BME280;5819;49.648;8.330;2023-08-06T06:03:49;99347.00;;;16.08;100.00
11525;BME280;5819;49.648;8.330;2023-08-06T06:06:17;99351.25;;;16.09;100.00
11525;BME280;5819;49.648;8.330;2023-08-06T06:08:46;99349.84;;;16.16;100.00
11525;BME280;5819;49.648;8.330;2023-08-06T06:11:16;99351.00;;;16.23;100.00
11525;BME280;5819;49.648;8.330;2023-08-06T06:13:50;99350.84;;;16.25;100.00
11525;BME280;5819;49.648;8.330;2023-08-06T06:16:18;99356.34;;;16.22;100.00
11525;BME280;5819;49.648;8.330;2023-08-06T06:18:46;99356.50;;;16.20;100.00
11525;BME280;5819;49.648;8.330;2023-08-06T06:21:14;99360.41;;;16.26;100.00
11525;BME280;5819;49.648;8.330;2023-08-06T06:23:42;99356.25;;;16.23;100.00
11525;BME280;5819;49.648;8.330;2023-08-06T06:26:10;99360.41;;;16.26;100.00
11525;BME280;5819;49.648;8.330;2023-08-06T06:28:39;99359.06;;;16.31;100.00
11525;BME280;5819;49.648;8.330;2023-08-06T06:31:07;99359.41;;;16.38;100.00
11525;BME280;5819;49.648;8.330;2023-08-06T06:33:37;99358.94;;;16.33;100.00
11525;BME280;5819;49.648;8.330;2023-08-06T06:36:08;99360.75;;;16.32;100.00
11525;BME280;5819;49.648;8.330;2023-08-06T06:38:40;99366.22;;;16.29;100.00
11525;BME280;5819;49.648;8.330;2023-08-06T06:41:13;99362.03;;;16.38;100.00
11525;BME280;5819;49.648;8.330;2023-08-06T06:43:45;99363.94;;;16.36;100.00
11525;BME280;5819;49.648;8.330;2023-08-06T06:46:12;99364.31;;;16.31;100.00
11525;BME280;5819;49.648;8.330;2023-08-06T06:48:41;99372.56;;;16.27;100.00
11525;BME280;5819;49.648;8.330;2023-08-06T06:51:10;99367.31;;;16.27;100.00
11525;BME280;5819;49.648;8.330;2023-08-06T06:53:42;99361.81;;;16.30;100.00
11525;BME280;5819;49.648;8.330;2023-08-06T06:56:14;99370.69;;;16.18;100.00
11525;BME280;5819;49.648;8.330;2023-08-06T06:58:46;99369.00;;;16.28;100.00
11525;BME280;5819;49.648;8.330;2023-08-06T07:01:16;99369.09;;;16.26;100.00
11525;BME280;5819;49.648;8.330;2023-08-06T07:03:45;99371.94;;;16.34;100.00
11525;BME280;5819;49.648;8.330;2023-08-06T07:06:15;99371.38;;;16.31;100.00
11525;BME280;5819;49.648;8.330;2023-08-06T07:08:45;99374.56;;;16.34;100.00
11525;BME280;5819;49.648;8.330;2023-08-06T07:11:14;99369.38;;;16.23;100.00
11525;BME280;5819;49.648;8.330;2023-08-06T07:13:42;99372.56;;;16.27;100.00
11525;BME280;5819;49.648;8.330;2023-08-06T07:16:11;99364.59;;;16.28;100.00
11525;BME280;5819;49.648;8.330;2023-08-06T07:18:39;99364.91;;;16.35;100.00
11525;BME280;5819;49.648;8.330;2023-08-06T07:21:06;99367.06;;;16.30;100.00
11525;BME280;5819;49.648;8.330;2023-08-06T07:23:35;99360.97;;;16.29;100.00
11525;BME280;5819;49.648;8.330;2023-08-06T07:26:03;99357.66;;;16.27;100.00
11525;BME280;5819;49.648;8.330;2023-08-06T07:28:31;99359.66;;;16.35;100.00
11525;BME280;5819;49.648;8.330;2023-08-06T07:30:58;99367.84;;;16.42;100.00
11525;BME280;5819;49.648;8.330;2023-08-06T07:33:28;99366.56;;;16.68;100.00
11525;BME280;5819;49.648;8.330;2023-08-06T07:35:56;99355.69;;;16.72;100.00
11525;BME280;5819;49.648;8.330;2023-08-06T07:38:23;99364.00;;;16.77;100.00
11525;BME280;5819;49.648;8.330;2023-08-06T07:40:52;99361.56;;;16.85;100.00
11525;BME280;5819;49.648;8.330;2023-08-06T07:43:21;99364.94;;;16.97;100.00
11525;BME280;5819;49.648;8.330;2023-08-06T07:45:49;99355.59;;;17.04;100.00
11525;BME280;5819;49.648;8.330;2023-08-06T07:48:17;99362.94;;;17.10;100.00
11525;BME280;5819;49.648;8.330;2023-08-06T07:50:50;99366.69;;;17.08;100.00
11525;BME280;5819;49.648;8.330;2023-08-06T07:53:22;99357.94;;;17.28;100.00
11525;BME280;5819;49.648;8.330;2023-08-06T07:55:52;99346.69;;;17.26;100.00
11525;BME280;5819;49.648;8.330;2023-08-06T07:58:24;99351.75;;;17.39;100.00
11525;BME280;5819;49.648;8.330;2023-08-06T08:00:53;99349.00;;;17.40;100.00
11525;BME280;5819;49.648;8.330;2023-08-06T08:03:23;99346.56;;;17.58;100.00
11525;BME280;5819;49.648;8.330;2023-08-06T08:05:55;99345.66;;;17.68;100.00
11525;BME280;5819;49.648;8.330;2023-08-06T08:08:26;99352.56;;;17.69;100.00
11525;BME280;5819;49.648;8.330;2023-08-06T08:10:54;99345.13;;;17.84;100.00
11525;BME280;5819;49.648;8.330;2023-08-06T08:13:25;99343.19;;;17.76;100.00
11525;BME280;5819;49.648;8.330;2023-08-06T08:15:57;99342.63;;;17.73;100.00
11525;BME280;5819;49.648;8.330;2023-08-06T08:18:25;99329.47;;;17.83;100.00
11525;BME280;5819;49.648;8.330;2023-08-06T08:20:54;99322.31;;;18.04;100.00
11525;BME280;5819;49.648;8.330;2023-08-06T08:23:22;99319.69;;;18.33;100.00
11525;BME280;5819;49.648;8.330;2023-08-06T08:25:52;99310.94;;;18.42;100.00
11525;BME280;5819;49.648;8.330;2023-08-06T08:28:22;99314.38;;;18.42;100.00
11525;BME280;5819;49.648;8.330;2023-08-06T08:30:51;99313.03;;;18.29;100.00
11525;BME280;5819;49.648;8.330;2023-08-06T08:33:22;99321.63;;;18.11;100.00
11525;BME280;5819;49.648;8.330;2023-08-06T08:35:52;99320.38;;;18.25;100.00
11525;BME280;5819;49.648;8.330;2023-08-06T08:38:22;99314.97;;;18.17;100.00
11525;BME280;5819;49.648;8.330;2023-08-06T08:40:52;99316.22;;;18.13;100.00
11525;BME280;5819;49.648;8.330;2023-08-06T08:43:22;99318.97;;;18.11;100.00
11525;BME280;5819;49.648;8.330;2023-08-06T08:45:53;99317.88;;;18.14;100.00
11525;BME280;5819;49.648;8.330;2023-08-06T08:48:24;99308.16;;;18.34;100.00
11525;BME280;5819;49.648;8.330;2023-08-06T08:50:54;99303.19;;;18.40;100.00
11525;BME280;5819;49.648;8.330;2023-08-06T08:53:26;99294.03;;;18.54;100.00
11525;BME280;5819;49.648;8.330;2023-08-06T08:55:56;99294.28;;;18.51;99.73
11525;BME280;5819;49.648;8.330;2023-08-06T08:58:27;99298.88;;;18.58;98.88
11525;BME280;5819;49.648;8.330;2023-08-06T09:00:55;99292.50;;;18.61;98.28
11525;BME280;5819;49.648;8.330;2023-08-06T09:03:23;99305.28;;;18.56;96.25
11525;BME280;5819;49.648;8.330;2023-08-06T09:05:53;99303.88;;;18.33;96.30
11525;BME280;5819;49.648;8.330;2023-08-06T09:08:27;99304.03;;;18.41;95.94
11525;BME280;5819;49.648;8.330;2023-08-06T09:10:55;99300.25;;;18.43;95.28
11525;BME280;5819;49.648;8.330;2023-08-06T09:13:24;99288.88;;;18.62;94.91
11525;BME280;5819;49.648;8.330;2023-08-06T09:15:52;99286.66;;;18.77;94.14
11525;BME280;5819;49.648;8.330;2023-08-06T09:18:25;99285.56;;;18.60;93.55
11525;BME280;5819;49.648;8.330;2023-08-06T09:20:55;99285.94;;;18.75;94.33
11525;BME280;5819;49.648;8.330;2023-08-06T09:23:29;99296.94;;;18.60;94.29
11525;BME280;5819;49.648;8.330;2023-08-06T09:25:58;99282.34;;;18.85;92.80
11525;BME280;5819;49.648;8.330;2023-08-06T09:28:36;99284.25;;;18.93;90.35
11525;BME280;5819;49.648;8.330;2023-08-06T09:31:05;99294.56;;;19.13;91.75
11525;BME280;5819;49.648;8.330;2023-08-06T09:33:33;99283.22;;;19.03;89.43
11525;BME280;5819;49.648;8.330;2023-08-06T09:36:07;99281.22;;;19.15;90.28
11525;BME280;5819;49.648;8.330;2023-08-06T09:38:40;99292.22;;;18.74;89.92
11525;BME280;5819;49.648;8.330;2023-08-06T09:41:08;99297.88;;;18.79;90.56
11525;BME280;5819;49.648;8.330;2023-08-06T09:43:41;99306.63;;;18.50;91.98
11525;BME280;5819;49.648;8.330;2023-08-06T09:46:13;99308.56;;;18.58;92.89
11525;BME280;5819;49.648;8.330;2023-08-06T09:48:45;99302.06;;;18.62;92.57
11525;BME280;5819;49.648;8.330;2023-08-06T09:51:13;99313.59;;;18.32;92.31
11525;BME280;5819;49.648;8.330;2023-08-06T09:53:43;99315.25;;;18.33;92.34
11525;BME280;5819;49.648;8.330;2023-08-06T09:56:13;99315.53;;;18.49;91.16
11525;BME280;5819;49.648;8.330;2023-08-06T09:58:44;99312.47;;;18.44;91.45
11525;BME280;5819;49.648;8.330;2023-08-06T10:01:13;99302.75;;;18.74;90.30
11525;BME280;5819;49.648;8.330;2023-08-06T10:03:42;99306.34;;;18.63;89.63
11525;BME280;5819;49.648;8.330;2023-08-06T10:06:10;99321.31;;;18.43;89.41
11525;BME280;5819;49.648;8.330;2023-08-06T10:08:39;99313.13;;;18.46;91.74
11525;BME280;5819;49.648;8.330;2023-08-06T10:11:10;99327.97;;;18.38;90.41
11525;BME280;5819;49.648;8.330;2023-08-06T10:13:39;99338.38;;;18.39;92.42
11525;BME280;5819;49.648;8.330;2023-08-06T10:16:07;99320.63;;;18.51;92.87
11525;BME280;5819;49.648;8.330;2023-08-06T10:18:36;99333.91;;;18.88;91.03
11525;BME280;5819;49.648;8.330;2023-08-06T10:21:07;99323.97;;;18.72;91.54
11525;BME280;5819;49.648;8.330;2023-08-06T10:23:36;99337.72;;;18.37;92.19
11525;BME280;5819;49.648;8.330;2023-08-06T10:26:05;99335.59;;;18.50;93.08
11525;BME280;5819;49.648;8.330;2023-08-06T10:28:37;99346.28;;;18.58;93.65
11525;BME280;5819;49.648;8.330;2023-08-06T10:31:06;99343.63;;;18.78;91.91
11525;BME280;5819;49.648;8.330;2023-08-06T10:33:41;99341.16;;;18.76;90.64
11525;BME280;5819;49.648;8.330;2023-08-06T10:36:10;99330.13;;;19.09;89.71
11525;BME280;5819;49.648;8.330;2023-08-06T10:38:46;99342.25;;;18.83;88.65
11525;BME280;5819;49.648;8.330;2023-08-06T10:41:27;99344.63;;;18.67;88.69
11525;BME280;5819;49.648;8.330;2023-08-06T10:44:06;99348.94;;;18.68;89.27
11525;BME280;5819;49.648;8.330;2023-08-06T10:46:36;99351.53;;;18.87;88.02
11525;BME280;5819;49.648;8.330;2023-08-06T10:49:04;99359.91;;;19.10;88.07
11525;BME280;5819;49.648;8.330;2023-08-06T10:51:34;99354.53;;;19.02;86.72
11525;BME280;5819;49.648;8.330;2023-08-06T10:54:03;99376.91;;;18.79;87.15
11525;BME280;5819;49.648;8.330;2023-08-06T10:56:39;99382.22;;;18.59;87.72
11525;BME280;5819;49.648;8.330;2023-08-06T10:59:10;99379.16;;;18.74;86.51
11525;BME280;5819;49.648;8.330;2023-08-06T11:01:42;99391.06;;;18.58;86.25
11525;BME280;5819;49.648;8.330;2023-08-06T11:04:12;99402.97;;;18.24;87.35
11525;BME280;5819;49.648;8.330;2023-08-06T11:06:52;99411.22;;;18.10;87.99
11525;BME280;5819;49.648;8.330;2023-08-06T11:09:22;99405.13;;;18.00;87.84
11525;BME280;5819;49.648;8.330;2023-08-06T11:11:52;99409.69;;;17.98;88.42
11525;BME280;5819;49.648;8.330;2023-08-06T11:14:24;99416.63;;;17.99;88.58
11525;BME280;5819;49.648;8.330;2023-08-06T11:16:55;99410.97;;;18.22;87.56
11525;BME280;5819;49.648;8.330;2023-08-06T11:19:24;99405.75;;;18.32;86.14
11525;BME280;5819;49.648;8.330;2023-08-06T11:21:52;99410.19;;;18.41;85.17
11525;BME280;5819;49.648;8.330;2023-08-06T11:24:20;99411.16;;;18.40;85.67
11525;BME280;5819;49.648;8.330;2023-08-06T11:26:48;99408.56;;;18.59;84.99
11525;BME280;5819;49.648;8.330;2023-08-06T11:29:16;99412.69;;;18.62;83.49
11525;BME280;5819;49.648;8.330;2023-08-06T11:31:45;99417.81;;;18.83;83.23
11525;BME280;5819;49.648;8.330;2023-08-06T11:34:13;99423.09;;;18.63;82.85
11525;BME280;5819;49.648;8.330;2023-08-06T11:36:41;99426.81;;;18.42;82.87
11525;BME280;5819;49.648;8.330;2023-08-06T11:39:09;99431.81;;;18.45;82.53
11525;BME280;5819;49.648;8.330;2023-08-06T11:41:38;99429.31;;;18.43;81.90
11525;BME280;5819;49.648;8.330;2023-08-06T11:44:10;99436.63;;;18.30;81.63
11525;BME280;5819;49.648;8.330;2023-08-06T11:46:51;99454.94;;;18.32;82.36
11525;BME280;5819;49.648;8.330;2023-08-06T11:49:19;99454.97;;;18.41;81.69
11525;BME280;5819;49.648;8.330;2023-08-06T11:51:48;99447.31;;;18.38;80.28
11525;BME280;5819;49.648;8.330;2023-08-06T11:54:30;99456.72;;;18.31;81.94
11525;BME280;5819;49.648;8.330;2023-08-06T11:57:00;99449.69;;;18.41;81.39
11525;BME280;5819;49.648;8.330;2023-08-06T11:59:29;99458.84;;;18.37;80.19
11525;BME280;5819;49.648;8.330;2023-08-06T12:02:00;99448.63;;;18.73;78.98
11525;BME280;5819;49.648;8.330;2023-08-06T12:04:28;99461.09;;;18.70;77.12
11525;BME280;5819;49.648;8.330;2023-08-06T12:07:04;99461.66;;;18.64;76.20
11525;BME280;5819;49.648;8.330;2023-08-06T12:09:32;99461.25;;;18.79;76.49
11525;BME280;5819;49.648;8.330;2023-08-06T12:12:01;99464.84;;;18.68;75.21
11525;BME280;5819;49.648;8.330;2023-08-06T12:14:29;99483.44;;;18.57;76.53
11525;BME280;5819;49.648;8.330;2023-08-06T12:16:59;99482.88;;;18.63;77.81
11525;BME280;5819;49.648;8.330;2023-08-06T12:19:27;99496.31;;;18.60;76.92
11525;BME280;5819;49.648;8.330;2023-08-06T12:21:56;99488.00;;;18.74;76.59
11525;BME280;5819;49.648;8.330;2023-08-06T12:24:24;99498.06;;;18.50;77.85
11525;BME280;5819;49.648;8.330;2023-08-06T12:26:53;99493.44;;;18.73;75.68
11525;BME280;5819;49.648;8.330;2023-08-06T12:29:26;99505.47;;;18.56;76.54
11525;BME280;5819;49.648;8.330;2023-08-06T12:31:54;99515.28;;;18.54;77.56
11525;BME280;5819;49.648;8.330;2023-08-06T12:34:24;99513.88;;;18.50;77.42
11525;BME280;5819;49.648;8.330;2023-08-06T12:36:56;99506.72;;;18.71;77.83
11525;BME280;5819;49.648;8.330;2023-08-06T12:39:24;99506.44;;;18.74;75.69
11525;BME280;5819;49.648;8.330;2023-08-06T12:41:55;99519.34;;;18.67;77.44
11525;BME280;5819;49.648;8.330;2023-08-06T12:44:32;99527.78;;;18.52;78.21
11525;BME280;5819;49.648;8.330;2023-08-06T12:47:00;99530.84;;;18.27;78.58
11525;BME280;5819;49.648;8.330;2023-08-06T12:49:30;99541.28;;;18.28;79.66
11525;BME280;5819;49.648;8.330;2023-08-06T12:52:00;99548.19;;;18.59;80.95
11525;BME280;5819;49.648;8.330;2023-08-06T12:54:28;99550.03;;;18.38;81.67
11525;BME280;5819;49.648;8.330;2023-08-06T12:56:56;99561.28;;;18.40;82.28
11525;BME280;5819;49.648;8.330;2023-08-06T12:59:24;99556.56;;;18.44;85.50
11525;BME280;5819;49.648;8.330;2023-08-06T13:01:52;99577.00;;;18.21;90.33
11525;BME280;5819;49.648;8.330;2023-08-06T13:04:20;99578.97;;;17.98;92.79
11525;BME280;5819;49.648;8.330;2023-08-06T13:06:50;99580.44;;;17.91;92.16
11525;BME280;5819;49.648;8.330;2023-08-06T13:09:19;99579.00;;;18.08;92.08
11525;BME280;5819;49.648;8.330;2023-08-06T13:11:47;99590.88;;;18.02;92.58
11525;BME280;5819;49.648;8.330;2023-08-06T13:14:16;99596.16;;;18.02;92.29